Time;durP1;ratioP1;P1;durP2;ratioP2;P2;SDS_P1;SDS_P2;PMS_P1;PMS_P2;Temp;Humidity;BMP_temperature;BMP_pressure;BME280_temperature;BME280_humidity;BME280_pressure;Samples;Min_cycle;Max_cycle;Signal;HPM_P1;HPM_P2
2022/10/03 00:02:45;;;;;;;2.33;0.98;;;;;;;10.76;100.00;98655.44;4423578;32;20800;-79
2022/10/03 00:05:35;;;;;;;2.15;1.25;;;;;;;10.75;100.00;98641.53;4423427;32;20105;-79
2022/10/03 00:08:19;;;;;;;3.67;1.40;;;;;;;10.71;100.00;98647.19;4423676;32;20452;-80
2022/10/03 00:11:17;;;;;;;2.83;1.25;;;;;;;10.71;100.00;98657.66;4409368;32;20097;-79
2022/10/03 00:14:12;;;;;;;1.65;1.10;;;;;;;10.65;100.00;98659.03;4423604;32;20101;-80
2022/10/03 00:17:02;;;;;;;1.92;1.20;;;;;;;10.61;100.00;98652.44;4423287;32;20514;-80
2022/10/03 00:19:54;;;;;;;3.30;1.23;;;;;;;10.62;100.00;98654.09;4422198;32;20137;-80
2022/10/03 00:22:39;;;;;;;1.73;1.10;;;;;;;10.66;100.00;98658.09;4423333;32;20090;-80
2022/10/03 00:25:25;;;;;;;3.08;1.17;;;;;;;10.64;100.00;98660.84;4422052;32;20115;-80
2022/10/03 00:28:05;;;;;;;5.00;1.15;;;;;;;10.60;100.00;98653.41;4408229;32;20161;-80
2022/10/03 00:31:06;;;;;;;3.05;1.23;;;;;;;10.57;100.00;98666.78;4406638;32;20512;-80
2022/10/03 00:33:45;;;;;;;2.85;1.40;;;;;;;10.57;100.00;98658.94;4408017;32;20132;-80
2022/10/03 00:36:45;;;;;;;1.90;1.25;;;;;;;10.52;100.00;98663.75;4408044;32;20093;-79
2022/10/03 00:39:40;;;;;;;3.62;1.30;;;;;;;10.51;100.00;98656.84;4408164;32;20156;-79
2022/10/03 00:42:24;;;;;;;2.80;1.58;;;;;;;10.54;100.00;98660.03;4408230;32;20432;-79
2022/10/03 00:45:00;;;;;;;5.53;1.20;;;;;;;10.55;100.00;98663.47;4406568;32;20756;-79
2022/10/03 00:47:37;;;;;;;2.83;1.37;;;;;;;10.57;100.00;98661.56;4407964;32;20094;-79
2022/10/03 00:50:23;;;;;;;2.15;1.33;;;;;;;10.56;100.00;98662.50;4407948;32;20117;-80
2022/10/03 00:52:56;;;;;;;3.33;1.77;;;;;;;10.62;100.00;98662.75;4408219;32;20086;-80
2022/10/03 00:56:01;;;;;;;3.03;1.40;;;;;;;10.66;100.00;98655.47;4407902;32;20093;-80
2022/10/03 00:58:31;;;;;;;3.12;1.30;;;;;;;10.63;100.00;98661.81;4408028;32;20086;-80
2022/10/03 01:01:20;;;;;;;2.25;1.33;;;;;;;10.63;100.00;98658.38;4408220;32;20451;-80
2022/10/03 01:04:09;;;;;;;2.50;1.37;;;;;;;10.63;100.00;98661.81;4408060;32;20093;-80
2022/10/03 01:06:48;;;;;;;3.03;1.52;;;;;;;10.69;100.00;98670.06;4409887;32;20136;-80
2022/10/03 01:10:04;;;;;;;2.28;1.40;;;;;;;10.68;100.00;98677.09;4421871;32;20116;-80
2022/10/03 01:12:34;;;;;;;3.10;1.27;;;;;;;10.73;100.00;98676.69;4375236;32;20134;-80
2022/10/03 01:15:23;;;;;;;1.62;1.20;;;;;;;10.76;100.00;98681.63;4374947;32;20183;-80
2022/10/03 01:18:18;;;;;;;2.58;1.33;;;;;;;10.72;100.00;98678.47;4362642;32;20543;-80
2022/10/03 01:21:11;;;;;;;2.10;1.33;;;;;;;10.64;100.00;98671.31;4362728;32;20140;-80
2022/10/03 01:24:08;;;;;;;5.07;1.57;;;;;;;10.55;100.00;98679.19;4362869;32;20149;-80
2022/10/03 01:27:00;;;;;;;5.32;1.83;;;;;;;10.41;100.00;98677.81;4308833;33;20452;-80
2022/10/03 01:32:26;;;;;;;4.35;2.00;;;;;;;10.32;100.00;98666.34;4301024;33;20580;-80
2022/10/03 01:35:01;;;;;;;3.75;1.48;;;;;;;10.31;100.00;98672.56;4300385;33;20173;-80
2022/10/03 01:38:00;;;;;;;6.93;1.50;;;;;;;10.24;100.00;98676.69;4301325;33;20130;-80
2022/10/03 01:40:35;;;;;;;4.00;1.87;;;;;;;10.18;100.00;98672.81;4300089;33;20114;-80
2022/10/03 01:43:19;;;;;;;;;;;;;;;10.13;100.00;98675.84;4301328;33;20114;-80
2022/10/03 01:46:15;;;;;;;5.40;1.80;;;;;;;10.07;100.00;98678.19;4301282;33;20391;-80
2022/10/03 01:49:10;;;;;;;6.75;1.70;;;;;;;10.00;100.00;98685.75;4310363;32;20165;-79
2022/10/03 01:51:55;;;;;;;2.03;1.45;;;;;;;9.96;100.00;98697.44;4347538;32;20211;-80
2022/10/03 01:54:33;;;;;;;2.22;1.60;;;;;;;9.88;100.00;98695.50;4359902;32;20141;-80
2022/10/03 01:57:31;;;;;;;2.28;1.75;;;;;;;9.91;100.00;98695.22;4347771;32;20173;-80
2022/10/03 02:00:07;;;;;;;4.35;1.48;;;;;;;9.88;100.00;98695.50;4360089;32;20161;-80
2022/10/03 02:02:43;;;;;;;4.90;1.65;;;;;;;9.89;100.00;98699.78;4369619;32;20128;-80
2022/10/03 02:05:33;;;;;;;5.18;2.30;;;;;;;9.93;100.00;98695.94;4422644;32;20196;-80
2022/10/03 02:08:22;;;;;;;5.70;1.85;;;;;;;9.89;100.00;98699.78;4422493;32;20098;-80
2022/10/03 02:10:55;;;;;;;4.60;2.03;;;;;;;9.89;100.00;98702.41;4422540;32;20102;-80
2022/10/03 02:13:35;;;;;;;2.65;1.70;;;;;;;9.90;100.00;98700.59;4422605;32;20108;-80
2022/10/03 02:16:15;;;;;;;7.62;2.08;;;;;;;9.90;100.00;98711.06;4422717;32;20081;-80
2022/10/03 02:18:50;;;;;;;3.90;2.03;;;;;;;9.86;100.00;98715.75;4421202;32;20518;-80
2022/10/03 02:21:27;;;;;;;2.25;1.62;;;;;;;9.86;100.00;98709.69;4421605;32;20175;-80
2022/10/03 02:24:06;;;;;;;6.10;2.80;;;;;;;9.81;100.00;98711.88;4421300;32;20093;-80
2022/10/03 02:27:00;;;;;;;5.03;2.25;;;;;;;9.83;100.00;98716.00;4422316;32;20077;-80
2022/10/03 02:29:47;;;;;;;5.50;1.92;;;;;;;9.80;100.00;98712.84;4422234;32;20097;-80
2022/10/03 02:33:06;;;;;;;6.50;1.95;;;;;;;9.84;100.00;98722.91;4422020;32;20116;-80
2022/10/03 02:35:48;;;;;;;3.08;1.83;;;;;;;9.83;100.00;98721.25;4359851;32;20135;-80
2022/10/03 02:38:21;;;;;;;5.78;2.17;;;;;;;9.82;100.00;98724.00;4359269;32;20142;-80
2022/10/03 02:41:06;;;;;;;6.12;2.15;;;;;;;9.79;100.00;98730.31;4359491;32;20657;-80
2022/10/03 02:43:46;;;;;;;3.50;2.00;;;;;;;9.76;100.00;98731.44;4359638;32;20157;-80
2022/10/03 02:46:25;;;;;;;6.00;2.00;;;;;;;9.79;100.00;98735.53;4359536;32;20604;-80
2022/10/03 02:49:17;;;;;;;5.18;2.00;;;;;;;9.77;100.00;98734.88;4361231;32;20141;-80
2022/10/03 02:52:03;;;;;;;5.37;2.25;;;;;;;9.75;100.00;98724.53;4361055;32;20603;-80
2022/10/03 02:54:56;;;;;;;4.80;1.80;;;;;;;9.71;100.00;98730.97;4361148;32;20190;-80
2022/10/03 02:57:44;;;;;;;2.58;1.58;;;;;;;9.68;100.00;98733.88;4358695;32;20158;-80
2022/10/03 03:00:19;;;;;;;4.43;2.03;;;;;;;9.59;100.00;98725.00;4361069;32;20157;-80
2022/10/03 03:03:21;;;;;;;3.30;1.90;;;;;;;9.54;100.00;98727.22;4361080;32;20102;-80
2022/10/03 03:06:28;;;;;;;7.07;2.08;;;;;;;9.44;100.00;98725.50;4361355;32;20126;-80
2022/10/03 03:09:36;;;;;;;4.22;1.75;;;;;;;9.32;100.00;98725.59;4346144;33;20135;-80
2022/10/03 03:12:12;;;;;;;5.07;2.12;;;;;;;9.19;100.00;98723.19;4344360;33;20662;-80
2022/10/03 03:15:01;;;;;;;3.78;1.75;;;;;;;9.28;100.00;98720.75;4346041;33;20102;-80
2022/10/03 03:17:50;;;;;;;7.15;2.03;;;;;;;9.28;100.00;98724.22;4346084;33;20508;-80
2022/10/03 03:20:53;;;;;;;4.55;1.67;;;;;;;9.30;100.00;98731.91;4346109;33;20111;-80
2022/10/03 03:23:35;;;;;;;4.60;2.12;;;;;;;9.24;100.00;98741.09;4346236;33;20099;-79
2022/10/03 03:26:15;;;;;;;4.28;1.77;;;;;;;9.20;100.00;98740.50;4349727;32;20203;-80
2022/10/03 03:28:45;;;;;;;4.95;1.80;;;;;;;9.16;100.00;98744.37;4360876;32;20159;-80
2022/10/03 03:31:24;;;;;;;4.70;2.20;;;;;;;9.12;100.00;98737.72;4360712;32;20099;-78
2022/10/03 03:34:12;;;;;;;3.25;2.00;;;;;;;9.08;100.00;98735.50;4348665;32;20103;-80
2022/10/03 03:37:03;;;;;;;4.57;2.22;;;;;;;9.19;100.00;98740.62;4361024;32;20106;-80
2022/10/03 03:39:53;;;;;;;8.98;2.35;;;;;;;9.17;100.00;98739.94;4360758;32;20178;-80
2022/10/03 03:42:39;;;;;;;3.22;1.98;;;;;;;9.19;100.00;98740.62;4360782;32;20525;-80
2022/10/03 03:45:18;;;;;;;4.90;2.50;;;;;;;9.13;100.00;98738.53;4360686;32;20107;-80
2022/10/03 03:48:07;;;;;;;7.97;2.58;;;;;;;9.15;100.00;98742.69;4360757;32;20319;-80
2022/10/03 03:50:44;;;;;;;3.42;2.20;;;;;;;9.17;100.00;98743.37;4423667;32;20090;-80
2022/10/03 03:53:42;;;;;;;2.75;1.77;;;;;;;9.19;100.00;98745.88;4423438;32;20108;-80
2022/10/03 03:56:19;;;;;;;2.67;2.10;;;;;;;9.21;100.00;98751.81;4423633;32;20107;-80
2022/10/03 03:58:58;;;;;;;3.83;2.05;;;;;;;9.15;100.00;98747.91;4422895;32;20598;-80
2022/10/03 04:01:32;;;;;;;3.55;2.10;;;;;;;9.20;100.00;98750.16;4423479;32;20093;-80
2022/10/03 04:04:09;;;;;;;2.67;2.05;;;;;;;9.14;100.00;98750.66;4406899;32;20098;-80
2022/10/03 04:06:46;;;;;;;4.00;2.17;;;;;;;9.11;100.00;98750.91;4422040;32;20135;-80
2022/10/03 04:09:55;;;;;;;4.37;2.12;;;;;;;9.08;100.00;98748.56;4423904;32;20105;-80
2022/10/03 04:12:23;;;;;;;3.75;2.03;;;;;;;9.04;100.00;98756.66;4412495;32;20687;-80
2022/10/03 04:15:24;;;;;;;9.13;2.33;;;;;;;9.05;100.00;98753.09;4426864;32;20108;-80
2022/10/03 04:21:26;;;;;;;5.70;1.90;;;;;;;8.99;100.00;98763.22;4413874;32;20132;-80
2022/10/03 04:24:38;;;;;;;3.12;2.10;;;;;;;8.95;100.00;98757.44;4373595;32;20142;-80
2022/10/03 04:27:33;;;;;;;2.78;2.00;;;;;;;8.93;100.00;98763.72;4369997;32;20484;-80
2022/10/03 04:30:10;;;;;;;10.45;2.50;;;;;;;8.91;100.00;98761.25;4373872;32;20091;-81
2022/10/03 04:32:55;;;;;;;2.70;2.10;;;;;;;8.94;100.00;98761.00;4363832;32;20150;-81
2022/10/03 04:35:31;;;;;;;5.50;2.55;;;;;;;8.91;100.00;98773.50;4372278;32;20861;-80
2022/10/03 04:38:20;;;;;;;5.95;2.45;;;;;;;8.94;100.00;98771.44;4368742;32;20906;-81
2022/10/03 04:40:58;;;;;;;3.28;2.60;;;;;;;8.96;100.00;98777.38;4373299;32;20118;-80
2022/10/03 04:43:57;;;;;;;5.95;2.75;;;;;;;8.91;100.00;98781.31;4367073;32;20508;-80
2022/10/03 04:46:33;;;;;;;4.00;2.30;;;;;;;8.88;100.00;98787.63;4377984;32;20110;-80
2022/10/03 04:49:17;;;;;;;6.22;2.55;;;;;;;8.86;100.00;98790.38;4375080;32;20199;-81
2022/10/03 04:51:44;;;;;;;6.40;3.12;;;;;;;8.84;100.00;98791.44;4373546;32;20460;-81
2022/10/03 04:54:23;;;;;;;3.95;2.80;;;;;;;8.82;100.00;98802.00;4374335;32;20146;-81
2022/10/03 04:56:52;;;;;;;6.50;3.08;;;;;;;8.87;100.00;98809.47;4374193;32;20095;-81
2022/10/03 04:59:33;;;;;;;4.60;2.47;;;;;;;8.94;100.00;98800.19;4374867;32;20225;-80
2022/10/03 05:02:03;;;;;;;4.82;3.35;;;;;;;8.94;100.00;98813.25;4420845;32;20098;-80
2022/10/03 05:05:13;;;;;;;7.45;3.97;;;;;;;9.02;100.00;98821.31;4424322;32;20147;-80
2022/10/03 05:07:57;;;;;;;6.75;3.08;;;;;;;9.09;100.00;98810.34;4407665;32;20101;-80
2022/10/03 05:10:30;;;;;;;;;;;;;;;9.26;100.00;98819.41;4421350;32;20114;-80
2022/10/03 05:13:15;;;;;;;5.00;2.90;;;;;;;9.34;100.00;98824.81;4401106;32;19973;-78
2022/10/03 05:15:52;;;;;;;6.60;2.58;;;;;;;9.48;100.00;98810.56;4413916;32;20128;-79
2022/10/03 05:18:33;;;;;;;3.80;2.58;;;;;;;9.55;100.00;98812.56;4421295;32;20097;-81
2022/10/03 05:21:19;;;;;;;6.05;2.62;;;;;;;9.54;100.00;98808.28;4421783;32;20122;-83
2022/10/03 05:24:02;;;;;;;4.53;2.90;;;;;;;9.60;100.00;98804.31;4417590;32;20113;-79
2022/10/03 05:26:34;;;;;;;4.53;2.60;;;;;;;9.54;100.00;98810.91;4417231;32;20151;-81
2022/10/03 05:29:40;;;;;;;8.05;3.20;;;;;;;9.59;100.00;98802.66;4418542;32;20169;-81
2022/10/03 05:32:34;;;;;;;7.20;3.00;;;;;;;9.62;100.00;98802.41;4421778;32;20181;-81
2022/10/03 05:35:20;;;;;;;3.90;2.72;;;;;;;9.61;100.00;98808.56;4406770;32;20101;-80
2022/10/03 05:37:53;;;;;;;5.37;3.08;;;;;;;9.63;100.00;98809.28;4420603;32;20705;-80
2022/10/03 05:40:24;;;;;;;6.60;3.28;;;;;;;9.70;100.00;98810.41;4420709;32;20489;-80
2022/10/03 05:42:51;;;;;;;4.47;2.90;;;;;;;9.67;100.00;98799.38;4407602;32;20112;-82
2022/10/03 05:45:29;;;;;;;4.60;2.95;;;;;;;9.67;100.00;98805.44;4420938;32;20127;-80
2022/10/03 05:48:21;;;;;;;12.30;3.58;;;;;;;9.78;100.00;98809.78;4409332;32;20105;-80
2022/10/03 05:51:02;;;;;;;6.10;2.70;;;;;;;9.82;100.00;98815.56;4421903;32;20132;-78
2022/10/03 05:53:56;;;;;;;6.32;3.12;;;;;;;9.86;100.00;98822.22;4406006;32;20094;-80
2022/10/03 05:56:34;;;;;;;5.50;2.90;;;;;;;9.91;100.00;98814.78;4410349;32;20093;-79
2022/10/03 05:59:42;;;;;;;6.15;3.05;;;;;;;9.96;100.00;98828.28;4420575;32;20467;-81
2022/10/03 06:02:22;;;;;;;7.18;2.92;;;;;;;10.01;100.00;98813.03;4418928;32;20081;-80
2022/10/03 06:05:00;;;;;;;10.65;2.42;;;;;;;10.10;100.00;98824.50;4421351;32;20549;-80
2022/10/03 06:07:50;;;;;;;9.55;2.50;;;;;;;10.17;100.00;98823.00;4419607;32;20090;-80
2022/10/03 06:10:26;;;;;;;5.12;2.65;;;;;;;10.22;100.00;98819.97;4411730;32;20109;-80
2022/10/03 06:13:48;;;;;;;3.30;2.00;;;;;;;10.29;100.00;98821.09;4419833;32;20383;-79
2022/10/03 06:16:54;;;;;;;3.50;2.00;;;;;;;10.39;100.00;98816.75;4400570;32;20127;-78
2022/10/03 06:19:29;;;;;;;6.20;1.70;;;;;;;10.46;100.00;98827.50;4362944;32;20590;-79
2022/10/03 06:22:28;;;;;;;7.22;2.20;;;;;;;10.54;100.00;98837.34;4359305;32;20139;-78
2022/10/03 06:25:01;;;;;;;4.85;1.95;;;;;;;10.63;100.00;98839.94;4353403;32;20119;-77
2022/10/03 06:27:42;;;;;;;5.30;1.73;;;;;;;10.73;100.00;98839.12;4357650;32;20405;-79
2022/10/03 06:30:20;;;;;;;3.50;1.75;;;;;;;10.91;100.00;98850.59;4358643;32;20551;-78
2022/10/03 06:32:53;;;;;;;13.43;1.80;;;;;;;10.97;100.00;98863.16;4354723;32;20161;-80
2022/10/03 06:35:30;;;;;;;3.30;1.40;;;;;;;11.13;100.00;98870.47;4355282;32;20095;-79
2022/10/03 06:38:28;;;;;;;4.12;1.50;;;;;;;11.26;100.00;98880.66;4350184;32;20111;-77
2022/10/03 06:41:15;;;;;;;12.18;2.03;;;;;;;11.44;100.00;98885.22;4356760;32;20103;-77
2022/10/03 06:43:52;;;;;;;2.03;1.23;;;;;;;11.47;100.00;98884.94;4354177;32;20119;-77
2022/10/03 06:47:01;;;;;;;4.05;1.58;;;;;;;11.58;100.00;98883.97;4353344;32;20103;-79
2022/10/03 06:50:06;;;;;;;7.72;1.58;;;;;;;11.62;100.00;98890.59;4333747;33;20134;-80
2022/10/03 06:52:58;;;;;;;4.80;1.62;;;;;;;11.75;100.00;98888.50;4331512;32;20167;-80
2022/10/03 06:55:40;;;;;;;3.20;1.45;;;;;;;11.77;100.00;98886.56;4367557;32;20977;-77
2022/10/03 06:58:30;;;;;;;4.70;1.45;;;;;;;11.78;100.00;98888.22;4358748;32;20116;-76
2022/10/03 07:01:34;;;;;;;6.07;1.70;;;;;;;11.94;100.00;98881.56;4361724;32;20123;-77
2022/10/03 07:04:24;;;;;;;7.53;1.45;;;;;;;12.07;100.00;98889.97;4360802;32;20118;-73
2022/10/03 07:07:29;;;;;;;4.90;1.40;;;;;;;12.22;100.00;98885.88;4359030;32;20173;-77
2022/10/03 07:10:16;;;;;;;3.33;1.20;;;;;;;12.34;100.00;98885.69;4367123;32;20123;-76
2022/10/03 07:13:07;;;;;;;7.40;1.75;;;;;;;12.31;100.00;98889.44;4358704;32;21186;-76
2022/10/03 07:15:39;;;;;;;7.40;1.40;;;;;;;12.31;100.00;98891.22;4354064;32;20107;-76
2022/10/03 07:18:55;;;;;;;5.25;1.65;;;;;;;12.29;100.00;98878.25;4362142;32;20126;-80
2022/10/03 07:22:00;;;;;;;5.32;2.33;;;;;;;12.34;100.00;98868.13;4365148;32;20159;-78
2022/10/03 07:24:58;;;;;;;4.60;1.62;;;;;;;12.13;100.00;98875.44;4358013;32;20091;-78
2022/10/03 07:28:02;;;;;;;4.20;1.77;;;;;;;12.12;100.00;98879.84;4406374;32;20112;-79
2022/10/03 07:31:08;;;;;;;6.90;1.55;;;;;;;12.14;100.00;98877.91;4421715;32;20147;-79
2022/10/03 07:33:57;;;;;;;5.18;1.50;;;;;;;12.16;100.00;98881.22;4419833;32;20139;-78
2022/10/03 07:39:38;;;;;;;5.70;1.90;;;;;;;12.42;100.00;98873.47;4420344;32;20118;-76
2022/10/03 07:42:30;;;;;;;3.33;1.50;;;;;;;12.46;100.00;98887.16;4424203;32;20124;-79
2022/10/03 07:45:39;;;;;;;5.37;1.50;;;;;;;12.66;100.00;98879.19;4432997;32;20172;-79
2022/10/03 07:48:22;;;;;;;7.15;1.60;;;;;;;12.58;100.00;98885.16;4426522;32;20494;-80
2022/10/03 07:50:52;;;;;;;4.62;1.35;;;;;;;12.67;99.90;98892.19;4422663;32;20156;-78
2022/10/03 07:53:47;;;;;;;7.03;1.77;;;;;;;12.76;100.00;98886.03;4422827;32;20094;-82
2022/10/03 07:56:27;;;;;;;4.32;1.50;;;;;;;12.85;100.00;98892.16;4430775;32;20548;-80
2022/10/03 07:59:12;;;;;;;4.30;1.17;;;;;;;13.00;100.00;98889.03;4419126;32;20116;-78
2022/10/03 08:02:17;;;;;;;3.30;1.25;;;;;;;12.95;96.50;98903.47;4425256;32;20117;-77
2022/10/03 08:04:53;;;;;;;3.45;1.30;;;;;;;12.86;97.41;98898.28;4423630;32;20105;-80
2022/10/03 08:07:24;;;;;;;5.90;1.50;;;;;;;12.76;96.18;98898.31;4419430;32;20101;-80
2022/10/03 08:10:08;;;;;;;2.87;1.55;;;;;;;12.76;96.59;98883.41;4422877;32;20081;-86
2022/10/03 08:12:53;;;;;;;6.07;1.48;;;;;;;12.83;98.56;98909.91;4427470;32;20116;-82
2022/10/03 08:15:47;;;;;;;6.18;1.48;;;;;;;12.94;97.65;98899.19;4424796;32;20113;-82
2022/10/03 08:18:35;;;;;;;4.03;1.45;;;;;;;13.04;95.01;98903.56;4416653;32;20225;-84
2022/10/03 08:21:21;;;;;;;5.47;1.42;;;;;;;12.99;94.31;98901.38;4413632;32;20089;-81
2022/10/03 08:24:33;;;;;;;3.62;1.10;;;;;;;13.29;94.02;98909.84;4407096;32;20127;-82
2022/10/03 08:27:15;;;;;;;2.03;1.05;;;;;;;13.39;94.83;98915.09;4417672;32;20154;-84
2022/10/03 08:29:55;;;;;;;3.50;1.40;;;;;;;13.17;92.03;98917.16;4420566;32;20200;-85
2022/10/03 08:32:41;;;;;;;5.20;1.20;;;;;;;13.17;91.41;98917.16;4422605;32;20093;-81
2022/10/03 08:35:40;;;;;;;3.60;1.50;;;;;;;13.21;90.77;98907.97;4422305;32;20662;-81
2022/10/03 08:38:46;;;;;;;3.62;1.48;;;;;;;13.60;90.34;98881.34;4409042;32;20101;-83
2022/10/03 08:41:42;;;;;;;6.65;1.80;;;;;;;13.78;89.19;98883.13;4386648;32;20176;-80
2022/10/03 08:44:27;;;;;;;3.65;1.30;;;;;;;13.69;86.39;98894.56;4382884;32;20200;-85
2022/10/03 08:47:05;;;;;;;6.28;1.30;;;;;;;13.77;85.95;98902.53;4389225;32;20129;-85
2022/10/03 08:50:00;;;;;;;3.97;1.58;;;;;;;13.74;86.62;98892.31;4385290;32;20134;-83
2022/10/03 08:52:34;;;;;;;9.38;1.50;;;;;;;13.93;88.34;98897.38;4375826;32;20224;-84
2022/10/03 08:55:06;;;;;;;5.87;1.70;;;;;;;13.81;85.20;98898.63;4374670;32;20229;-84
2022/10/03 08:57:52;;;;;;;7.22;1.00;;;;;;;13.89;86.26;98905.75;4400257;32;20144;-82
2022/10/03 09:00:36;;;;;;;6.35;1.55;;;;;;;14.33;83.05;98893.28;4381872;32;20118;-85
2022/10/03 09:03:30;;;;;;;4.30;1.17;;;;;;;14.40;81.88;98896.13;4382462;32;20122;-83
2022/10/03 09:06:25;;;;;;;5.65;1.50;;;;;;;13.94;83.41;98901.63;4390400;32;20121;-83
2022/10/03 09:09:19;;;;;;;5.28;1.42;;;;;;;14.19;86.02;98905.25;4384140;32;20301;-84
2022/10/03 09:12:25;;;;;;;3.78;1.77;;;;;;;14.08;83.31;98910.81;4383390;32;20130;-83
2022/10/03 09:15:10;;;;;;;4.30;1.30;;;;;;;13.96;83.50;98912.88;4384816;32;20148;-83
2022/10/03 09:18:10;;;;;;;6.85;1.92;;;;;;;13.91;85.04;98917.75;4394811;32;20899;-84
2022/10/03 09:20:58;;;;;;;3.12;1.62;;;;;;;13.68;84.25;98929.78;4382765;32;20110;-84
2022/10/03 09:24:03;;;;;;;4.78;1.42;;;;;;;13.69;86.00;98920.88;4371641;32;20106;-86
2022/10/03 09:27:11;;;;;;;7.32;1.67;;;;;;;13.74;86.64;98923.91;4373238;32;20098;-85
2022/10/03 09:30:11;;;;;;;5.05;1.33;;;;;;;13.82;88.61;98929.22;4374210;32;20216;-85
2022/10/03 09:33:08;;;;;;;4.37;1.70;;;;;;;14.17;88.01;98927.47;4353468;32;20115;-84
2022/10/03 09:35:42;;;;;;;7.15;1.55;;;;;;;13.92;86.43;98915.97;4355467;32;20156;-86
2022/10/03 09:38:33;;;;;;;6.15;1.20;;;;;;;13.89;86.87;98919.72;4356966;32;20129;-89
2022/10/03 09:41:29;;;;;;;5.82;1.70;;;;;;;14.08;86.93;98928.41;4355002;32;20165;-82
2022/10/03 09:44:27;;;;;;;5.03;1.37;;;;;;;13.93;86.08;98922.88;4358697;32;20095;-82
2022/10/03 09:47:21;;;;;;;2.42;1.33;;;;;;;14.01;86.88;98936.09;4354284;32;20163;-85
2022/10/03 09:50:20;;;;;;;6.43;1.45;;;;;;;13.92;86.10;98931.78;4355217;32;20119;-85
2022/10/03 09:53:17;;;;;;;2.70;1.10;;;;;;;13.78;86.28;98930.53;4354165;32;20197;-83
2022/10/03 09:56:22;;;;;;;7.07;1.23;;;;;;;14.33;83.43;98922.28;4309445;33;20128;-84
2022/10/03 09:59:13;;;;;;;1.60;0.73;;;;;;;14.55;82.77;98933.28;4349466;32;20190;-84
2022/10/03 10:01:46;;;;;;;3.05;1.10;;;;;;;14.23;81.71;98937.41;4356261;32;20111;-81
2022/10/03 10:04:16;;;;;;;1.45;0.90;;;;;;;14.10;82.52;98940.44;4357019;32;20095;-86
2022/10/03 10:07:09;;;;;;;1.33;0.80;;;;;;;14.26;81.10;98931.81;4355254;32;20107;-82
2022/10/03 10:09:55;;;;;;;6.43;1.12;;;;;;;14.26;79.75;98941.50;4368624;32;20253;-80
2022/10/03 10:12:30;;;;;;;3.53;1.02;;;;;;;14.34;82.40;98926.56;4375979;32;20168;-83
2022/10/03 10:15:22;;;;;;;4.37;1.10;;;;;;;14.55;82.19;98930.62;4365939;32;20197;-82
2022/10/03 10:17:57;;;;;;;3.00;0.80;;;;;;;14.85;80.17;98942.47;4370815;32;20091;-79
2022/10/03 10:20:46;;;;;;;3.42;1.45;;;;;;;15.10;81.32;98941.72;4372166;32;20164;-84
2022/10/03 10:23:42;;;;;;;2.45;0.77;;;;;;;15.35;79.29;98947.81;4369544;32;20672;-79
2022/10/03 10:26:15;;;;;;;2.72;1.30;;;;;;;14.83;77.57;98938.34;4363494;32;20166;-80
2022/10/03 10:28:47;;;;;;;3.60;0.90;;;;;;;14.96;77.37;98946.63;4375246;32;20619;-84
2022/10/03 10:31:43;;;;;;;5.30;1.20;;;;;;;15.09;77.39;98943.50;4373531;32;20151;-83
2022/10/03 10:34:36;;;;;;;1.33;1.05;;;;;;;15.02;78.30;98940.69;4398901;32;20361;-80
2022/10/03 10:37:21;;;;;;;5.85;1.12;;;;;;;14.70;78.17;98936.13;4418101;32;20466;-78
2022/10/03 10:40:07;;;;;;;1.95;0.98;;;;;;;14.55;79.95;98949.09;4435439;32;20429;-80
2022/10/03 10:43:15;;;;;;;4.60;1.87;;;;;;;14.38;81.46;98959.53;4430009;32;20510;-80
2022/10/03 10:45:48;;;;;;;3.22;1.20;;;;;;;14.24;80.76;98951.38;4382095;32;20200;-80
2022/10/03 10:48:21;;;;;;;5.37;1.25;;;;;;;14.27;81.58;98951.91;4371857;32;20930;-80
2022/10/03 10:51:27;;;;;;;2.12;1.30;;;;;;;14.22;81.40;98940.16;4372379;32;20121;-81
2022/10/03 10:54:31;;;;;;;3.65;1.00;;;;;;;14.49;83.67;98949.72;4372747;32;20129;-83
2022/10/03 10:57:23;;;;;;;2.10;1.02;;;;;;;14.54;78.22;98934.25;4367509;32;20306;-81
2022/10/03 11:00:20;;;;;;;2.30;1.23;;;;;;;14.29;81.03;98934.13;4364326;32;20246;-81
2022/10/03 11:03:09;;;;;;;2.90;1.27;;;;;;;13.97;83.96;98932.97;4369060;32;20129;-80
2022/10/03 11:05:55;;;;;;;1.83;0.90;;;;;;;13.90;82.94;98931.94;4368226;32;20509;-80
2022/10/03 11:08:35;;;;;;;1.73;0.95;;;;;;;13.95;83.30;98936.72;4374669;32;20821;-79
2022/10/03 11:11:40;;;;;;;3.03;0.90;;;;;;;14.13;82.60;98926.13;4367450;32;20217;-78
2022/10/03 11:14:31;;;;;;;1.33;0.90;;;;;;;14.29;80.78;98925.38;4359005;32;20099;-79
2022/10/03 11:17:14;;;;;;;4.30;1.10;;;;;;;14.45;80.27;98922.00;4370805;32;20126;-79
2022/10/03 11:20:09;;;;;;;4.95;0.90;;;;;;;14.78;81.72;98927.44;4387189;32;20406;-79
2022/10/03 11:22:48;;;;;;;3.03;0.70;;;;;;;15.31;80.31;98928.06;4409983;32;20140;-80
2022/10/03 11:25:45;;;;;;;9.90;0.98;;;;;;;15.41;76.66;98924.25;4415707;32;20172;-80
2022/10/03 11:28:31;;;;;;;0.65;0.50;;;;;;;15.29;78.47;98919.44;4413703;32;20157;-81
2022/10/03 11:31:17;;;;;;;2.40;0.87;;;;;;;15.22;78.26;98925.38;4408415;32;176508;-81
2022/10/03 11:34:19;;;;;;;1.23;0.90;;;;;;;14.92;76.59;98929.44;4422320;32;20106;-79
2022/10/03 11:36:48;;;;;;;2.00;0.77;;;;;;;14.84;75.75;98916.25;4414751;32;20140;-79
2022/10/03 11:39:35;;;;;;;0.80;0.70;;;;;;;14.99;77.33;98914.62;4413760;32;20173;-81
2022/10/03 11:42:17;;;;;;;2.58;0.68;;;;;;;14.89;73.10;98937.69;4419345;32;20085;-81
2022/10/03 11:44:50;;;;;;;1.23;0.60;;;;;;;14.65;74.82;98930.53;4421536;32;20537;-81
2022/10/03 11:47:39;;;;;;;1.90;0.90;;;;;;;14.57;75.62;98927.84;4433307;32;20101;-80
2022/10/03 11:50:47;;;;;;;0.68;0.68;;;;;;;14.69;77.37;98929.22;4419922;32;20797;-81
2022/10/03 11:53:18;;;;;;;1.77;0.70;;;;;;;14.68;78.26;98922.28;4391246;32;20433;-80
2022/10/03 11:55:50;;;;;;;2.70;0.90;;;;;;;14.38;77.01;98927.91;4389348;32;20712;-80
2022/10/03 11:58:58;;;;;;;1.65;0.98;;;;;;;14.20;76.15;98924.50;4398976;32;20767;-80
2022/10/03 12:01:38;;;;;;;3.22;0.80;;;;;;;14.22;78.52;98921.72;4375776;32;20141;-80
2022/10/03 12:04:38;;;;;;;2.22;1.10;;;;;;;14.02;81.99;98924.59;4380040;32;20101;-81
2022/10/03 12:10:30;;;;;;;2.85;0.93;;;;;;;13.93;81.74;98923.72;4351397;32;20203;-81
2022/10/03 12:13:16;;;;;;;3.47;0.95;;;;;;;14.43;82.55;98930.09;4317623;33;20171;-80
2022/10/03 12:15:48;;;;;;;2.28;1.00;;;;;;;14.40;81.74;98926.91;4299434;33;20132;-80
2022/10/03 12:18:22;;;;;;;3.62;0.80;;;;;;;14.27;81.75;98919.47;4310367;33;20892;-80
2022/10/03 12:20:59;;;;;;;1.20;0.82;;;;;;;14.05;80.89;98919.03;4320511;33;20092;-80
2022/10/03 12:23:50;;;;;;;3.85;1.00;;;;;;;14.01;80.74;98918.47;4318638;33;20243;-79
2022/10/03 12:26:28;;;;;;;3.42;0.73;;;;;;;14.12;81.60;98921.84;4316177;33;20123;-80
2022/10/03 12:28:56;;;;;;;3.42;0.90;;;;;;;14.28;77.17;98914.03;4330082;33;20155;-81
2022/10/03 12:31:25;;;;;;;4.30;0.85;;;;;;;14.51;73.60;98910.84;4333810;33;20095;-81
2022/10/03 12:34:31;;;;;;;1.58;0.80;;;;;;;14.90;73.90;98915.59;4329447;33;20359;-81
2022/10/03 12:37:16;;;;;;;1.73;0.70;;;;;;;15.09;69.87;98903.91;4338786;33;20160;-81
2022/10/03 12:39:50;;;;;;;3.12;1.02;;;;;;;15.13;68.21;98899.97;4329714;33;20621;-79
2022/10/03 12:42:29;;;;;;;2.65;0.90;;;;;;;15.19;70.48;98909.88;4336677;33;20175;-80
2022/10/03 12:45:32;;;;;;;3.35;0.60;;;;;;;15.31;70.02;98913.03;4357839;32;20303;-81
2022/10/03 12:48:13;;;;;;;4.40;0.90;;;;;;;15.37;69.81;98908.91;4355339;32;20119;-81
2022/10/03 12:50:42;;;;;;;6.18;0.85;;;;;;;15.56;71.16;98911.22;4368339;32;20098;-81
2022/10/03 12:53:18;;;;;;;3.22;1.50;;;;;;;15.61;72.05;98913.38;4373555;32;20279;-81
2022/10/03 12:56:05;;;;;;;0.80;0.70;;;;;;;15.53;72.78;98900.97;4373957;32;20126;-80
2022/10/03 12:58:51;;;;;;;1.23;0.85;;;;;;;15.11;72.56;98898.47;4371628;32;20511;-81
2022/10/03 13:01:21;;;;;;;5.28;1.05;;;;;;;14.67;74.41;98916.19;4373273;32;20130;-81
2022/10/03 13:04:04;;;;;;;3.60;1.10;;;;;;;13.85;92.84;98947.34;4374437;32;20578;-79
2022/10/03 13:06:39;;;;;;;7.18;1.30;;;;;;;12.68;100.00;98948.19;4368382;32;20579;-81
2022/10/03 13:09:47;;;;;;;4.45;1.48;;;;;;;12.17;100.00;98937.19;4362339;32;20859;-81
2022/10/03 13:12:33;;;;;;;6.32;1.55;;;;;;;11.87;100.00;98937.25;4376280;32;20098;-81
2022/10/03 13:15:02;;;;;;;2.58;1.35;;;;;;;12.01;100.00;98930.75;4420460;32;20128;-79
2022/10/03 13:17:53;;;;;;;3.33;1.17;;;;;;;12.16;100.00;98933.75;4421485;32;20106;-79